createdAt,value
2018-03-24T00:00:15.086Z,99241.09
2018-03-24T00:02:42.573Z,99234.66
2018-03-24T00:05:10.070Z,99239.70
2018-03-24T00:07:37.532Z,99236.13
2018-03-24T00:10:05.018Z,99236.28
2018-03-24T00:12:32.518Z,99233.02
2018-03-24T00:15:00.026Z,99235.26
2018-03-24T00:17:27.515Z,99235.12
2018-03-24T00:19:54.991Z,99238.31
2018-03-24T00:22:22.512Z,99238.32
2018-03-24T00:24:50.016Z,99232.67
2018-03-24T00:27:17.494Z,99233.86
2018-03-24T00:29:44.983Z,99231.34
2018-03-24T00:32:12.470Z,99232.25
2018-03-24T00:34:39.950Z,99235.03
2018-03-24T00:37:07.526Z,99231.36
2018-03-24T00:39:35.020Z,99235.44
2018-03-24T00:42:03.649Z,99235.97
2018-03-24T00:44:31.225Z,99234.25
2018-03-24T00:46:58.740Z,99238.73
2018-03-24T00:49:26.202Z,99231.36
2018-03-24T00:51:53.975Z,99233.08
2018-03-24T00:54:21.428Z,99236.61
2018-03-24T00:56:48.883Z,99229.39
2018-03-24T00:59:16.344Z,99226.77
2018-03-24T01:01:43.800Z,99222.00
2018-03-24T01:04:11.422Z,99220.94
2018-03-24T01:06:38.924Z,99217.27
2018-03-24T01:09:06.494Z,99221.23
2018-03-24T01:11:34.009Z,99221.35
2018-03-24T01:14:01.460Z,99223.73
2018-03-24T01:16:29.034Z,99220.69
2018-03-24T01:18:56.472Z,99222.95
2018-03-24T01:21:23.964Z,99220.84
2018-03-24T01:23:51.469Z,99222.30
2018-03-24T01:26:18.967Z,99225.31
2018-03-24T01:28:46.445Z,99226.50
2018-03-24T01:31:13.977Z,99217.93
2018-03-24T01:33:41.455Z,99219.36
2018-03-24T01:36:08.991Z,99215.69
2018-03-24T01:38:36.447Z,99214.50
2018-03-24T01:41:03.955Z,99213.31
2018-03-24T01:43:31.466Z,99208.45
2018-03-24T01:45:59.864Z,99206.60
2018-03-24T01:48:29.064Z,99202.53
2018-03-24T01:50:56.503Z,99199.80
2018-03-24T01:53:24.923Z,99196.53
2018-03-24T01:55:52.435Z,99192.95
2018-03-24T01:58:19.901Z,99191.00
2018-03-24T02:00:47.466Z,99193.89
2018-03-24T02:03:14.932Z,99191.50
2018-03-24T02:05:42.421Z,99194.53
2018-03-24T02:08:09.963Z,99193.36
2018-03-24T02:10:37.427Z,99193.20
2018-03-24T02:13:04.970Z,99191.75
2018-03-24T02:15:32.431Z,99189.25
2018-03-24T02:17:59.911Z,99194.02
2018-03-24T02:20:27.395Z,99184.53
2018-03-24T02:22:54.919Z,99190.05
2018-03-24T02:25:22.395Z,99187.52
2018-03-24T02:27:49.891Z,99186.35
2018-03-24T02:30:17.370Z,99185.46
2018-03-24T02:32:44.885Z,99174.95
2018-03-24T02:35:12.360Z,99174.95
2018-03-24T02:37:39.863Z,99177.86
2018-03-24T02:40:07.351Z,99174.20
2018-03-24T02:42:34.841Z,99176.44
2018-03-24T02:45:02.321Z,99183.57
2018-03-24T02:47:29.831Z,99174.73
2018-03-24T02:49:57.303Z,99170.92
2018-03-24T02:52:24.809Z,99168.03
2018-03-24T02:54:52.274Z,99163.58
2018-03-24T02:57:19.733Z,99166.61
2018-03-24T02:59:47.224Z,99164.09
2018-03-24T03:02:14.683Z,99160.05
2018-03-24T03:04:42.146Z,99157.66
2018-03-24T03:07:09.662Z,99162.02
2018-03-24T03:09:37.168Z,99166.77
2018-03-24T03:12:04.625Z,99166.88
2018-03-24T03:14:32.080Z,99161.77
2018-03-24T03:16:59.571Z,99160.23
2018-03-24T03:19:27.049Z,99158.26
2018-03-24T03:21:54.527Z,99161.81
2018-03-24T03:24:22.045Z,99149.75
2018-03-24T03:26:49.520Z,99157.38
2018-03-24T03:29:22.049Z,99154.08
2018-03-24T03:34:55.930Z,99162.37
2018-03-24T03:37:23.445Z,99165.27
2018-03-24T03:39:50.889Z,99160.02
2018-03-24T03:42:18.361Z,99162.65
2018-03-24T03:44:45.844Z,99155.81
2018-03-24T03:47:13.664Z,99156.73
2018-03-24T03:49:41.204Z,99156.22
2018-03-24T03:52:08.721Z,99154.77
2018-03-24T03:54:36.289Z,99150.70
2018-03-24T03:57:03.738Z,99150.70
2018-03-24T03:59:31.223Z,99150.17
2018-03-24T04:01:58.719Z,99149.13
2018-03-24T04:04:26.203Z,99144.27
2018-03-24T04:06:53.688Z,99146.50
2018-03-24T04:09:21.155Z,99142.05
2018-03-24T04:11:48.660Z,99145.72
2018-03-24T04:14:16.154Z,99143.36
2018-03-24T04:16:44.623Z,99148.48
2018-03-24T04:19:12.711Z,99153.34
2018-03-24T04:21:40.200Z,99157.14
2018-03-24T04:24:07.708Z,99151.48
2018-03-24T04:26:35.154Z,99157.54
2018-03-24T04:29:02.745Z,99157.95
2018-03-24T04:31:31.535Z,99157.68
2018-03-24T04:33:59.621Z,99152.93
2018-03-24T04:36:27.447Z,99157.81
2018-03-24T04:38:54.955Z,99148.08
2018-03-24T04:41:22.614Z,99152.03
2018-03-24T04:43:50.310Z,99150.72
2018-03-24T04:46:18.760Z,99151.26
2018-03-24T04:48:46.395Z,99153.75
2018-03-24T04:51:14.057Z,99154.25
2018-03-24T04:53:42.207Z,99152.94
2018-03-24T04:56:09.893Z,99153.34
2018-03-24T04:58:37.652Z,99152.44
2018-03-24T05:01:05.189Z,99152.44
2018-03-24T05:03:32.826Z,99160.19
2018-03-24T05:06:00.330Z,99161.23
2018-03-24T05:08:28.291Z,99156.38
2018-03-24T05:10:55.978Z,99155.84
2018-03-24T05:13:23.593Z,99164.53
2018-03-24T05:15:51.268Z,99159.28
2018-03-24T05:18:18.878Z,99164.13
2018-03-24T05:20:46.514Z,99172.28
2018-03-24T05:23:14.026Z,99167.53
2018-03-24T05:25:41.516Z,99167.30
2018-03-24T05:28:09.018Z,99169.25
2018-03-24T05:30:36.652Z,99163.45
2018-03-24T05:33:04.362Z,99163.59
2018-03-24T05:35:31.910Z,99172.41
2018-03-24T05:37:59.531Z,99168.06
2018-03-24T05:40:27.162Z,99169.52
2018-03-24T05:42:54.802Z,99170.42
2018-03-24T05:45:23.168Z,99169.38
2018-03-24T05:47:50.793Z,99166.35
2018-03-24T05:50:18.422Z,99171.88
2018-03-24T05:52:45.941Z,99172.01
2018-03-24T05:55:13.520Z,99167.66
2018-03-24T05:57:41.058Z,99170.05
2018-03-24T06:00:08.805Z,99168.73
2018-03-24T06:02:36.296Z,99166.48
2018-03-24T06:05:03.808Z,99169.52
2018-03-24T06:07:31.317Z,99173.32
2018-03-24T06:09:58.828Z,99175.68
2018-03-24T06:12:26.328Z,99175.68
2018-03-24T06:14:53.847Z,99174.36
2018-03-24T06:17:21.322Z,99181.47
2018-03-24T06:19:48.881Z,99188.55
2018-03-24T06:22:16.640Z,99185.92
2018-03-24T06:24:44.156Z,99192.12
2018-03-24T06:27:12.288Z,99188.04
2018-03-24T06:29:39.766Z,99193.67
2018-03-24T06:32:07.236Z,99194.20
2018-03-24T06:34:34.708Z,99195.25
2018-03-24T06:37:18.004Z,99198.69
2018-03-24T06:39:45.560Z,99191.17
2018-03-24T06:42:13.040Z,99198.55
2018-03-24T06:44:41.480Z,99193.80
2018-03-24T06:47:08.965Z,99199.99
2018-03-24T06:49:36.420Z,99201.68
2018-03-24T06:52:03.983Z,99199.31
2018-03-24T06:54:31.440Z,99200.63
2018-03-24T06:56:59.039Z,99197.72
2018-03-24T06:59:26.497Z,99200.21
2018-03-24T07:01:54.005Z,99202.83
2018-03-24T07:04:21.491Z,99203.64
2018-03-24T07:06:48.988Z,99203.73
2018-03-24T07:09:16.498Z,99205.17
2018-03-24T07:11:44.014Z,99202.53
2018-03-24T07:14:11.504Z,99206.22
2018-03-24T07:16:39.030Z,99208.44
2018-03-24T07:19:06.546Z,99213.55
2018-03-24T07:21:34.002Z,99214.98
2018-03-24T07:24:01.466Z,99217.73
2018-03-24T07:26:28.938Z,99220.09
2018-03-24T07:28:56.449Z,99223.09
2018-03-24T07:31:23.906Z,99229.53
2018-03-24T07:33:51.464Z,99228.54
2018-03-24T07:36:18.939Z,99234.40
2018-03-24T07:38:46.442Z,99233.41
2018-03-24T07:41:13.925Z,99234.39
2018-03-24T07:43:41.355Z,99231.07
2018-03-24T07:46:08.858Z,99236.45
2018-03-24T07:48:36.365Z,99238.83
2018-03-24T07:51:04.352Z,99239.33
2018-03-24T07:53:31.861Z,99239.42
2018-03-24T07:55:59.335Z,99239.16
2018-03-24T07:58:26.835Z,99248.05
2018-03-24T08:00:55.045Z,99241.79
2018-03-24T08:03:22.546Z,99244.27
2018-03-24T08:05:50.130Z,99255.42
2018-03-24T08:08:17.666Z,99250.52
2018-03-24T08:10:45.909Z,99246.99
2018-03-24T08:13:13.414Z,99245.55
2018-03-24T08:15:40.923Z,99250.03
2018-03-24T08:18:08.412Z,99252.47
2018-03-24T08:20:35.868Z,99250.50
2018-03-24T08:23:03.377Z,99253.33
2018-03-24T08:25:30.949Z,99248.03
2018-03-24T08:27:58.420Z,99258.42
2018-03-24T08:30:26.369Z,99253.72
2018-03-24T08:32:53.792Z,99258.40
2018-03-24T08:35:21.340Z,99251.19
2018-03-24T08:37:48.880Z,99255.19
2018-03-24T08:40:16.376Z,99256.94
2018-03-24T08:42:44.096Z,99265.28
2018-03-24T08:45:11.575Z,99259.45
2018-03-24T08:47:39.066Z,99259.72
2018-03-24T08:50:06.635Z,99261.89
2018-03-24T08:52:34.931Z,99261.33
2018-03-24T08:55:02.399Z,99262.55
2018-03-24T08:57:29.950Z,99265.77
2018-03-24T09:00:02.574Z,99262.36
2018-03-24T09:02:30.091Z,99258.17
2018-03-24T09:04:57.568Z,99266.95
2018-03-24T09:07:25.069Z,99261.17
2018-03-24T09:09:52.543Z,99261.78
2018-03-24T09:12:20.018Z,99260.27
2018-03-24T09:14:47.523Z,99265.15
2018-03-24T09:17:14.998Z,99257.47
2018-03-24T09:19:42.494Z,99261.56
2018-03-24T09:22:10.054Z,99258.20
2018-03-24T09:24:37.534Z,99271.41
2018-03-24T09:27:05.104Z,99264.77
2018-03-24T09:29:32.604Z,99259.22
2018-03-24T09:32:00.086Z,99258.60
2018-03-24T09:34:27.583Z,99259.95
2018-03-24T09:36:55.063Z,99257.36
2018-03-24T09:39:22.551Z,99257.30
2018-03-24T09:41:50.023Z,99247.41
2018-03-24T09:44:17.831Z,99260.19
2018-03-24T09:46:45.325Z,99254.33
2018-03-24T09:49:12.883Z,99259.23
2018-03-24T09:51:40.403Z,99253.55
2018-03-24T09:54:07.946Z,99249.67
2018-03-24T09:56:35.426Z,99252.17
2018-03-24T09:59:02.914Z,99258.38
2018-03-24T10:01:30.386Z,99250.54
2018-03-24T10:03:57.853Z,99249.39
2018-03-24T10:06:25.397Z,99252.94
2018-03-24T10:09:07.137Z,99248.26
2018-03-24T10:11:34.633Z,99249.14
2018-03-24T10:14:02.109Z,99247.61
2018-03-24T10:16:29.655Z,99252.53
2018-03-24T10:18:57.162Z,99253.70
2018-03-24T10:24:29.959Z,99246.84
2018-03-24T10:26:57.473Z,99248.65
2018-03-24T10:29:25.205Z,99246.92
2018-03-24T10:31:52.669Z,99241.04
2018-03-24T10:34:20.145Z,99239.33
2018-03-24T10:36:47.599Z,99237.69
2018-03-24T10:39:15.147Z,99237.73
2018-03-24T10:41:42.675Z,99236.40
2018-03-24T10:44:10.151Z,99237.04
2018-03-24T10:46:37.908Z,99242.06
2018-03-24T10:49:05.455Z,99229.84
2018-03-24T10:51:32.987Z,99227.78
2018-03-24T10:54:00.489Z,99226.51
2018-03-24T10:56:27.963Z,99225.13
2018-03-24T10:59:10.402Z,99223.81
2018-03-24T11:01:37.885Z,99222.88
2018-03-24T11:04:05.404Z,99216.82
2018-03-24T11:06:32.883Z,99221.21
2018-03-24T11:09:19.604Z,99219.92
2018-03-24T11:11:47.137Z,99217.17
2018-03-24T11:14:14.654Z,99233.39
2018-03-24T11:16:42.115Z,99226.37
2018-03-24T11:19:09.602Z,99229.78
2018-03-24T11:21:37.082Z,99230.69
2018-03-24T11:24:04.649Z,99219.62
2018-03-24T11:26:32.123Z,99222.27
2018-03-24T11:28:59.585Z,99219.05
2018-03-24T11:31:27.100Z,99219.30
2018-03-24T11:33:54.565Z,99218.09
2018-03-24T11:36:22.042Z,99217.80
2018-03-24T11:38:59.133Z,99222.00
2018-03-24T11:41:26.964Z,99223.28
2018-03-24T11:43:54.493Z,99224.63
2018-03-24T11:46:22.016Z,99228.50
2018-03-24T11:48:49.569Z,99227.22
2018-03-24T11:51:17.032Z,99227.83
2018-03-24T11:53:46.348Z,99227.64
2018-03-24T11:56:15.638Z,99221.58
2018-03-24T11:58:43.375Z,99223.65
2018-03-24T12:01:11.592Z,99222.57
2018-03-24T12:03:39.866Z,99223.31
2018-03-24T12:06:07.357Z,99216.22
2018-03-24T12:08:34.855Z,99220.72
2018-03-24T12:11:02.388Z,99221.17
2018-03-24T12:13:29.906Z,99217.25
2018-03-24T12:15:57.465Z,99219.16
2018-03-24T12:18:25.313Z,99214.16
2018-03-24T12:20:52.786Z,99217.52
2018-03-24T12:23:20.323Z,99216.05
2018-03-24T12:25:47.801Z,99213.64
2018-03-24T12:28:15.299Z,99222.06
2018-03-24T12:30:42.800Z,99215.12
2018-03-24T12:33:10.291Z,99214.92
2018-03-24T12:35:37.769Z,99210.72
2018-03-24T12:38:05.301Z,99201.14
2018-03-24T12:40:47.147Z,99200.53
2018-03-24T12:43:14.622Z,99204.34
2018-03-24T12:45:42.098Z,99206.83
2018-03-24T12:48:10.186Z,99209.94
2018-03-24T12:50:37.701Z,99202.61
2018-03-24T12:53:07.497Z,99196.05
2018-03-24T12:55:35.038Z,99198.97
2018-03-24T12:58:03.399Z,99197.94
2018-03-24T13:00:35.896Z,99195.42
2018-03-24T13:03:03.419Z,99202.41
2018-03-24T13:05:30.910Z,99198.44
2018-03-24T13:07:58.432Z,99199.31
2018-03-24T13:10:30.948Z,99191.03
2018-03-24T13:12:58.548Z,99197.13
2018-03-24T13:15:26.020Z,99192.33
2018-03-24T13:17:53.598Z,99189.67
2018-03-24T13:20:26.022Z,99193.94
2018-03-24T13:22:53.531Z,99193.09
2018-03-24T13:25:21.032Z,99189.91
2018-03-24T13:27:48.710Z,99185.50
2018-03-24T13:30:16.296Z,99184.67
2018-03-24T13:32:43.822Z,99186.32
2018-03-24T13:35:11.358Z,99180.11
2018-03-24T13:37:38.918Z,99187.20
2018-03-24T13:40:06.389Z,99190.20
2018-03-24T13:42:33.890Z,99187.98
2018-03-24T13:45:01.450Z,99180.69
2018-03-24T13:47:29.040Z,99178.51
2018-03-24T13:58:33.808Z,99188.49
2018-03-24T14:01:01.452Z,99182.54
2018-03-24T14:03:29.013Z,99184.32
2018-03-24T14:05:56.720Z,99181.37
2018-03-24T14:08:24.283Z,99181.88
2018-03-24T14:10:51.809Z,99191.70
2018-03-24T14:13:19.410Z,99188.93
2018-03-24T14:15:47.024Z,99180.70
2018-03-24T14:18:14.531Z,99184.63
2018-03-24T14:20:42.121Z,99184.45
2018-03-24T14:23:09.760Z,99186.30
2018-03-24T14:25:37.306Z,99181.61
2018-03-24T14:28:04.968Z,99184.52
2018-03-24T14:30:32.664Z,99181.68
2018-03-24T14:33:00.210Z,99178.56
2018-03-24T14:35:27.739Z,99173.36
2018-03-24T14:37:55.222Z,99178.06
2018-03-24T14:40:22.792Z,99178.27
2018-03-24T14:42:50.300Z,99180.94
2018-03-24T14:45:17.774Z,99181.15
2018-03-24T14:47:45.234Z,99178.24
2018-03-24T14:50:12.764Z,99188.64
2018-03-24T14:52:40.491Z,99186.80
2018-03-24T14:55:07.952Z,99183.95
2018-03-24T14:57:35.443Z,99177.00
2018-03-24T15:00:03.198Z,99176.88
2018-03-24T15:02:30.700Z,99179.30
2018-03-24T15:04:58.254Z,99180.43
2018-03-24T15:07:25.712Z,99181.62
2018-03-24T15:09:53.216Z,99176.69
2018-03-24T15:12:20.824Z,99180.27
2018-03-24T15:14:48.330Z,99174.39
2018-03-24T15:17:15.865Z,99175.40
2018-03-24T15:19:43.424Z,99173.62
2018-03-24T15:22:10.992Z,99184.83
2018-03-24T15:24:38.538Z,99181.09
2018-03-24T15:27:06.138Z,99184.63
2018-03-24T15:29:49.205Z,99178.96
2018-03-24T15:32:28.658Z,99180.15
2018-03-24T15:35:07.978Z,99180.09
2018-03-24T15:37:35.509Z,99176.05
2018-03-24T15:40:02.966Z,99171.39
2018-03-24T15:42:30.430Z,99172.46
2018-03-24T15:44:57.922Z,99181.48
2018-03-24T15:47:25.401Z,99175.85
2018-03-24T15:49:53.734Z,99177.34
2018-03-24T15:52:21.214Z,99176.30
2018-03-24T15:54:48.764Z,99174.73
2018-03-24T15:57:16.263Z,99171.55
2018-03-24T15:59:43.754Z,99170.45
2018-03-24T16:02:11.274Z,99172.17
2018-03-24T16:04:38.773Z,99173.03
2018-03-24T16:07:06.299Z,99175.18
2018-03-24T16:09:33.868Z,99180.19
2018-03-24T16:12:01.415Z,99178.09
2018-03-24T16:14:28.877Z,99187.02
2018-03-24T16:16:56.321Z,99182.25
2018-03-24T16:19:33.478Z,99179.43
2018-03-24T16:22:01.005Z,99186.41
2018-03-24T16:24:28.503Z,99182.58
2018-03-24T16:26:56.088Z,99179.99
2018-03-24T16:29:23.750Z,99180.77
2018-03-24T16:31:51.248Z,99186.73
2018-03-24T16:34:18.740Z,99186.17
2018-03-24T16:36:46.366Z,99186.73
2018-03-24T16:39:13.854Z,99189.55
2018-03-24T16:41:41.340Z,99196.91
2018-03-24T16:44:08.930Z,99191.05
2018-03-24T16:46:36.428Z,99201.20
2018-03-24T16:49:04.002Z,99196.27
2018-03-24T16:51:31.616Z,99198.83
2018-03-24T16:54:00.128Z,99195.48
2018-03-24T16:56:27.708Z,99195.80
2018-03-24T16:58:55.176Z,99196.48
2018-03-24T17:01:22.622Z,99194.98
2018-03-24T17:03:50.198Z,99203.84
2018-03-24T17:06:17.674Z,99206.34
2018-03-24T17:08:45.265Z,99215.66
2018-03-24T17:11:12.760Z,99208.69
2018-03-24T17:13:40.531Z,99221.90
2018-03-24T17:16:08.111Z,99219.67
2018-03-24T17:18:35.719Z,99223.64
2018-03-24T17:21:03.222Z,99223.17
2018-03-24T17:23:32.122Z,99221.76
2018-03-24T17:25:59.655Z,99225.02
2018-03-24T17:28:27.264Z,99230.95
2018-03-24T17:30:54.809Z,99225.86
2018-03-24T17:33:22.330Z,99232.91
2018-03-24T17:35:49.928Z,99233.28
2018-03-24T17:38:19.042Z,99234.92
2018-03-24T17:40:46.732Z,99228.59
2018-03-24T17:43:14.182Z,99235.59
2018-03-24T17:45:41.674Z,99242.85
2018-03-24T17:48:09.120Z,99247.14
2018-03-24T17:50:46.386Z,99259.32
2018-03-24T17:53:14.022Z,99261.21
2018-03-24T17:55:41.667Z,99261.80
2018-03-24T17:58:09.102Z,99257.85
2018-03-24T18:00:36.574Z,99261.56
2018-03-24T18:03:04.144Z,99263.34
2018-03-24T18:05:31.680Z,99262.55
2018-03-24T18:07:59.203Z,99272.67
2018-03-24T18:10:26.752Z,99273.17
2018-03-24T18:12:54.258Z,99273.60
2018-03-24T18:15:21.790Z,99273.56
2018-03-24T18:17:49.319Z,99272.24
2018-03-24T18:20:16.844Z,99276.00
2018-03-24T18:22:44.357Z,99283.84
2018-03-24T18:25:11.830Z,99291.39
2018-03-24T18:27:39.324Z,99288.05
2018-03-24T18:30:06.839Z,99289.34
2018-03-24T18:32:34.308Z,99289.09
2018-03-24T18:35:01.852Z,99294.33
2018-03-24T18:37:29.328Z,99294.11
2018-03-24T18:40:01.792Z,99298.05
2018-03-24T18:42:29.288Z,99300.86
2018-03-24T18:44:57.016Z,99303.09
2018-03-24T18:47:24.557Z,99300.09
2018-03-24T18:49:52.107Z,99311.31
2018-03-24T18:52:19.739Z,99315.15
2018-03-24T18:54:47.436Z,99309.45
2018-03-24T18:57:15.068Z,99309.91
2018-03-24T18:59:42.668Z,99311.25
2018-03-24T19:02:11.145Z,99307.15
2018-03-24T19:04:38.619Z,99313.80
2018-03-24T19:07:06.336Z,99314.20
2018-03-24T19:09:33.905Z,99316.38
2018-03-24T19:12:01.582Z,99309.05
2018-03-24T19:14:29.150Z,99311.60
2018-03-24T19:16:56.681Z,99317.92
2018-03-24T19:19:24.156Z,99316.63
2018-03-24T19:21:51.689Z,99315.96
2018-03-24T19:24:19.154Z,99320.88
2018-03-24T19:26:46.602Z,99323.69
2018-03-24T19:29:14.135Z,99318.60
2018-03-24T19:31:41.657Z,99316.85
2018-03-24T19:34:09.175Z,99311.84
2018-03-24T19:36:36.773Z,99308.78
2018-03-24T19:39:04.281Z,99315.86
2018-03-24T19:41:31.802Z,99312.66
2018-03-24T19:43:59.329Z,99319.88
2018-03-24T19:46:26.814Z,99315.50
2018-03-24T19:48:54.298Z,99326.65
2018-03-24T19:51:21.794Z,99325.25
2018-03-24T19:53:49.335Z,99324.68
2018-03-24T19:56:16.834Z,99328.47
2018-03-24T19:58:44.346Z,99323.67
2018-03-24T20:01:11.896Z,99324.85
2018-03-24T20:03:39.423Z,99322.43
2018-03-24T20:06:06.980Z,99320.67
2018-03-24T20:08:34.503Z,99320.22
2018-03-24T20:11:07.197Z,99321.99
2018-03-24T20:13:34.695Z,99324.23
2018-03-24T20:16:02.201Z,99326.99
2018-03-24T20:18:29.807Z,99317.14
2018-03-24T20:20:58.139Z,99324.87
2018-03-24T20:23:25.679Z,99317.71
2018-03-24T20:25:53.182Z,99324.10
2018-03-24T20:28:20.722Z,99327.34
2018-03-24T20:30:48.234Z,99316.61
2018-03-24T20:33:15.685Z,99312.09
2018-03-24T20:35:43.241Z,99320.63
2018-03-24T20:38:10.871Z,99322.05
2018-03-24T20:40:39.219Z,99317.28
2018-03-24T20:43:07.280Z,99326.95
2018-03-24T20:45:34.763Z,99320.52
2018-03-24T20:48:02.311Z,99330.03
2018-03-24T20:50:29.825Z,99334.70
2018-03-24T20:52:57.369Z,99327.09
2018-03-24T20:55:25.032Z,99326.66
2018-03-24T20:57:52.506Z,99329.78
2018-03-24T21:00:20.105Z,99325.63
2018-03-24T21:02:47.631Z,99327.46
2018-03-24T21:05:15.139Z,99328.27
2018-03-24T21:07:42.683Z,99331.58
2018-03-24T21:10:10.163Z,99333.20
2018-03-24T21:12:38.173Z,99331.64
2018-03-24T21:15:06.081Z,99338.14
2018-03-24T21:17:33.549Z,99336.52
2018-03-24T21:20:01.155Z,99342.21
2018-03-24T21:22:28.609Z,99342.61
2018-03-24T21:24:56.137Z,99339.66
2018-03-24T21:27:23.677Z,99341.83
2018-03-24T21:29:51.189Z,99348.67
2018-03-24T21:32:18.670Z,99351.43
2018-03-24T21:34:46.121Z,99345.68
2018-03-24T21:37:13.562Z,99348.00
2018-03-24T21:39:46.111Z,99350.79
2018-03-24T21:42:13.611Z,99342.27
2018-03-24T21:44:41.107Z,99349.43
2018-03-24T21:47:09.540Z,99341.02
2018-03-24T21:49:37.109Z,99341.41
2018-03-24T21:52:04.593Z,99338.80
2018-03-24T21:54:32.206Z,99343.57
2018-03-24T21:56:59.684Z,99346.13
2018-03-24T21:59:27.187Z,99345.03
2018-03-24T22:01:54.773Z,99344.29
2018-03-24T22:04:22.352Z,99343.14
2018-03-24T22:06:49.834Z,99346.16
2018-03-24T22:09:17.316Z,99342.22
2018-03-24T22:11:44.809Z,99347.56
2018-03-24T22:14:12.749Z,99345.32
2018-03-24T22:16:40.259Z,99339.98
2018-03-24T22:19:07.705Z,99340.95
2018-03-24T22:21:35.222Z,99336.59
2018-03-24T22:24:02.701Z,99334.28
2018-03-24T22:26:30.197Z,99341.47
2018-03-24T22:28:57.717Z,99339.63
2018-03-24T22:31:25.215Z,99330.01
2018-03-24T22:33:52.713Z,99335.98
2018-03-24T22:36:20.322Z,99331.13
2018-03-24T22:38:47.834Z,99335.58
2018-03-24T22:41:15.338Z,99323.86
2018-03-24T22:43:42.812Z,99324.17
2018-03-24T22:46:10.328Z,99326.12
2018-03-24T22:48:37.800Z,99324.22
2018-03-24T22:51:05.304Z,99320.67
2018-03-24T22:53:32.778Z,99323.44
2018-03-24T22:56:00.283Z,99322.16
2018-03-24T22:58:27.766Z,99318.75
2018-03-24T23:00:55.303Z,99313.95
2018-03-24T23:03:22.781Z,99318.08
2018-03-24T23:05:50.342Z,99315.78
2018-03-24T23:08:17.815Z,99323.32
2018-03-24T23:10:45.305Z,99322.41
2018-03-24T23:13:13.758Z,99323.84
2018-03-24T23:15:41.366Z,99321.98
2018-03-24T23:18:08.889Z,99320.42
2018-03-24T23:20:36.338Z,99319.42
2018-03-24T23:23:03.949Z,99324.00
2018-03-24T23:25:31.432Z,99322.19
2018-03-24T23:27:59.049Z,99320.95
2018-03-24T23:30:26.500Z,99324.22
2018-03-24T23:32:53.979Z,99325.66
2018-03-24T23:35:21.538Z,99319.53
2018-03-24T23:37:49.026Z,99315.98
2018-03-24T23:40:16.493Z,99321.59
2018-03-24T23:42:44.030Z,99318.02
2018-03-24T23:45:11.510Z,99321.42
2018-03-24T23:47:38.978Z,99321.12
2018-03-24T23:50:06.497Z,99318.55
2018-03-24T23:52:34.054Z,99321.07
2018-03-24T23:55:01.538Z,99323.66
2018-03-24T23:57:29.075Z,99321.14
2018-03-24T23:59:56.556Z,99314.42
